sensor_id;sensor_type;location;lat;lon;timestamp;temperature;humidity
24224;DHT22;12359;49.716;9.212;2023-07-20T00:01:04;18.30;1.00
24224;DHT22;12359;49.716;9.212;2023-07-20T00:03:30;18.30;1.00
24224;DHT22;12359;49.716;9.212;2023-07-20T00:05:56;18.30;1.00
24224;DHT22;12359;49.716;9.212;2023-07-20T00:08:22;18.20;1.00
24224;DHT22;12359;49.716;9.212;2023-07-20T00:10:47;18.20;1.00
24224;DHT22;12359;49.716;9.212;2023-07-20T00:13:13;18.20;1.00
24224;DHT22;12359;49.716;9.212;2023-07-20T00:15:41;18.20;4.20
24224;DHT22;12359;49.716;9.212;2023-07-20T00:18:07;18.20;2.50
24224;DHT22;12359;49.716;9.212;2023-07-20T00:20:33;18.20;2.30
24224;DHT22;12359;49.716;9.212;2023-07-20T00:22:59;18.20;1.00
24224;DHT22;12359;49.716;9.212;2023-07-20T00:25:25;18.20;1.00
24224;DHT22;12359;49.716;9.212;2023-07-20T00:27:50;18.20;1.00
24224;DHT22;12359;49.716;9.212;2023-07-20T00:30:16;18.20;1.00
24224;DHT22;12359;49.716;9.212;2023-07-20T00:32:43;18.20;1.00
24224;DHT22;12359;49.716;9.212;2023-07-20T00:35:09;18.10;1.00
24224;DHT22;12359;49.716;9.212;2023-07-20T00:37:36;18.10;1.00
24224;DHT22;12359;49.716;9.212;2023-07-20T00:40:02;18.10;1.00
24224;DHT22;12359;49.716;9.212;2023-07-20T00:42:31;18.10;1.00
24224;DHT22;12359;49.716;9.212;2023-07-20T00:44:56;18.00;1.00
24224;DHT22;12359;49.716;9.212;2023-07-20T00:47:22;18.00;1.00
24224;DHT22;12359;49.716;9.212;2023-07-20T00:49:48;17.90;1.00
24224;DHT22;12359;49.716;9.212;2023-07-20T00:52:15;17.90;1.00
24224;DHT22;12359;49.716;9.212;2023-07-20T00:54:41;17.90;1.00
24224;DHT22;12359;49.716;9.212;2023-07-20T00:57:08;17.90;1.00
24224;DHT22;12359;49.716;9.212;2023-07-20T00:59:34;17.80;1.00
24224;DHT22;12359;49.716;9.212;2023-07-20T01:02:02;17.90;1.00
24224;DHT22;12359;49.716;9.212;2023-07-20T01:04:28;17.90;1.00
24224;DHT22;12359;49.716;9.212;2023-07-20T01:07:08;17.90;1.00
24224;DHT22;12359;49.716;9.212;2023-07-20T01:12:12;17.90;1.00
24224;DHT22;12359;49.716;9.212;2023-07-20T01:14:39;17.90;1.00
24224;DHT22;12359;49.716;9.212;2023-07-20T01:17:05;17.90;1.00
24224;DHT22;12359;49.716;9.212;2023-07-20T01:19:31;17.90;1.00
24224;DHT22;12359;49.716;9.212;2023-07-20T01:22:02;17.90;1.00
24224;DHT22;12359;49.716;9.212;2023-07-20T01:32:42;17.70;1.00
24224;DHT22;12359;49.716;9.212;2023-07-20T01:35:10;17.70;1.00
24224;DHT22;12359;49.716;9.212;2023-07-20T01:37:42;17.60;1.00
24224;DHT22;12359;49.716;9.212;2023-07-20T01:40:10;17.60;1.00
24224;DHT22;12359;49.716;9.212;2023-07-20T01:42:36;17.60;1.00
24224;DHT22;12359;49.716;9.212;2023-07-20T01:45:02;17.60;1.00
24224;DHT22;12359;49.716;9.212;2023-07-20T01:47:27;17.50;1.00
24224;DHT22;12359;49.716;9.212;2023-07-20T01:49:53;17.50;1.00
24224;DHT22;12359;49.716;9.212;2023-07-20T01:52:19;17.50;1.00
24224;DHT22;12359;49.716;9.212;2023-07-20T01:54:45;17.50;1.00
24224;DHT22;12359;49.716;9.212;2023-07-20T01:57:10;17.40;1.00
24224;DHT22;12359;49.716;9.212;2023-07-20T01:59:36;17.40;1.00
24224;DHT22;12359;49.716;9.212;2023-07-20T02:02:02;17.20;1.00
24224;DHT22;12359;49.716;9.212;2023-07-20T02:04:27;17.20;1.00
24224;DHT22;12359;49.716;9.212;2023-07-20T02:06:53;17.10;1.00
24224;DHT22;12359;49.716;9.212;2023-07-20T02:09:19;17.10;1.00
24224;DHT22;12359;49.716;9.212;2023-07-20T02:11:45;17.00;1.00
24224;DHT22;12359;49.716;9.212;2023-07-20T02:14:11;17.00;1.00
24224;DHT22;12359;49.716;9.212;2023-07-20T02:16:36;17.00;1.00
24224;DHT22;12359;49.716;9.212;2023-07-20T02:19:02;16.90;1.00
24224;DHT22;12359;49.716;9.212;2023-07-20T02:21:29;16.90;1.00
24224;DHT22;12359;49.716;9.212;2023-07-20T02:23:54;16.80;1.00
24224;DHT22;12359;49.716;9.212;2023-07-20T02:26:20;16.80;1.00
24224;DHT22;12359;49.716;9.212;2023-07-20T02:28:46;16.80;1.00
24224;DHT22;12359;49.716;9.212;2023-07-20T02:31:11;16.80;1.00
24224;DHT22;12359;49.716;9.212;2023-07-20T02:33:37;16.80;1.00
24224;DHT22;12359;49.716;9.212;2023-07-20T02:36:03;16.80;1.00
24224;DHT22;12359;49.716;9.212;2023-07-20T02:38:28;16.80;1.00
24224;DHT22;12359;49.716;9.212;2023-07-20T02:40:54;16.80;1.00
24224;DHT22;12359;49.716;9.212;2023-07-20T02:43:20;16.80;1.00
24224;DHT22;12359;49.716;9.212;2023-07-20T02:45:46;16.70;1.00
24224;DHT22;12359;49.716;9.212;2023-07-20T02:48:11;16.70;1.00
24224;DHT22;12359;49.716;9.212;2023-07-20T02:50:37;16.70;1.00
24224;DHT22;12359;49.716;9.212;2023-07-20T02:53:03;16.60;1.00
24224;DHT22;12359;49.716;9.212;2023-07-20T02:55:28;16.60;1.00
24224;DHT22;12359;49.716;9.212;2023-07-20T02:57:54;16.60;1.00
24224;DHT22;12359;49.716;9.212;2023-07-20T03:00:20;16.60;1.00
24224;DHT22;12359;49.716;9.212;2023-07-20T03:02:48;16.60;1.00
24224;DHT22;12359;49.716;9.212;2023-07-20T03:05:14;16.60;1.00
24224;DHT22;12359;49.716;9.212;2023-07-20T03:07:42;16.60;1.00
24224;DHT22;12359;49.716;9.212;2023-07-20T03:10:09;16.60;1.00
24224;DHT22;12359;49.716;9.212;2023-07-20T03:12:35;16.60;1.00
24224;DHT22;12359;49.716;9.212;2023-07-20T03:15:04;16.50;1.00
24224;DHT22;12359;49.716;9.212;2023-07-20T03:17:30;16.40;1.00
24224;DHT22;12359;49.716;9.212;2023-07-20T03:19:55;16.40;1.00
24224;DHT22;12359;49.716;9.212;2023-07-20T03:22:21;16.30;1.00
24224;DHT22;12359;49.716;9.212;2023-07-20T03:24:47;16.30;1.00
24224;DHT22;12359;49.716;9.212;2023-07-20T03:27:13;16.20;1.00
24224;DHT22;12359;49.716;9.212;2023-07-20T03:29:39;16.20;1.00
24224;DHT22;12359;49.716;9.212;2023-07-20T03:32:05;16.20;1.00
24224;DHT22;12359;49.716;9.212;2023-07-20T03:34:31;16.20;1.00
24224;DHT22;12359;49.716;9.212;2023-07-20T03:36:57;16.10;1.00
24224;DHT22;12359;49.716;9.212;2023-07-20T03:39:24;16.10;1.00
24224;DHT22;12359;49.716;9.212;2023-07-20T03:41:50;16.00;1.00
24224;DHT22;12359;49.716;9.212;2023-07-20T03:44:16;16.00;1.00
24224;DHT22;12359;49.716;9.212;2023-07-20T03:46:42;16.00;1.00
24224;DHT22;12359;49.716;9.212;2023-07-20T03:49:07;16.00;1.00
24224;DHT22;12359;49.716;9.212;2023-07-20T03:51:34;16.00;1.00
24224;DHT22;12359;49.716;9.212;2023-07-20T03:54:00;16.00;1.00
24224;DHT22;12359;49.716;9.212;2023-07-20T03:56:26;16.00;1.00
24224;DHT22;12359;49.716;9.212;2023-07-20T03:58:52;16.00;1.00
24224;DHT22;12359;49.716;9.212;2023-07-20T04:01:18;16.00;1.00
24224;DHT22;12359;49.716;9.212;2023-07-20T04:03:44;16.00;1.00
24224;DHT22;12359;49.716;9.212;2023-07-20T04:06:10;16.00;1.00
24224;DHT22;12359;49.716;9.212;2023-07-20T04:08:36;15.90;1.00
24224;DHT22;12359;49.716;9.212;2023-07-20T04:11:03;15.90;1.00
24224;DHT22;12359;49.716;9.212;2023-07-20T04:13:28;15.80;21.90
24224;DHT22;12359;49.716;9.212;2023-07-20T04:15:54;15.70;29.50
24224;DHT22;12359;49.716;9.212;2023-07-20T04:18:20;15.60;38.10
24224;DHT22;12359;49.716;9.212;2023-07-20T04:20:46;15.50;38.70
24224;DHT22;12359;49.716;9.212;2023-07-20T04:23:12;15.50;43.80
24224;DHT22;12359;49.716;9.212;2023-07-20T04:25:39;15.50;48.40
24224;DHT22;12359;49.716;9.212;2023-07-20T04:28:08;15.50;51.90
24224;DHT22;12359;49.716;9.212;2023-07-20T04:30:35;15.60;54.30
24224;DHT22;12359;49.716;9.212;2023-07-20T04:33:02;15.60;51.90
24224;DHT22;12359;49.716;9.212;2023-07-20T04:35:51;15.70;49.20
24224;DHT22;12359;49.716;9.212;2023-07-20T04:38:17;15.70;50.00
24224;DHT22;12359;49.716;9.212;2023-07-20T04:40:47;15.70;50.00
24224;DHT22;12359;49.716;9.212;2023-07-20T04:43:14;15.80;48.20
24224;DHT22;12359;49.716;9.212;2023-07-20T04:45:40;15.80;46.10
24224;DHT22;12359;49.716;9.212;2023-07-20T04:48:10;16.00;45.00
24224;DHT22;12359;49.716;9.212;2023-07-20T04:50:43;16.10;41.30
24224;DHT22;12359;49.716;9.212;2023-07-20T04:53:10;16.30;33.70
24224;DHT22;12359;49.716;9.212;2023-07-20T04:55:37;16.30;32.10
24224;DHT22;12359;49.716;9.212;2023-07-20T04:58:04;16.40;29.10
24224;DHT22;12359;49.716;9.212;2023-07-20T05:00:31;16.50;27.30
24224;DHT22;12359;49.716;9.212;2023-07-20T05:02:57;16.50;26.20
24224;DHT22;12359;49.716;9.212;2023-07-20T05:05:23;16.50;18.00
24224;DHT22;12359;49.716;9.212;2023-07-20T05:07:49;16.50;23.30
24224;DHT22;12359;49.716;9.212;2023-07-20T05:10:14;16.70;16.30
24224;DHT22;12359;49.716;9.212;2023-07-20T05:12:40;16.80;11.00
24224;DHT22;12359;49.716;9.212;2023-07-20T05:15:06;17.00;4.80
24224;DHT22;12359;49.716;9.212;2023-07-20T05:17:32;17.10;1.00
24224;DHT22;12359;49.716;9.212;2023-07-20T05:19:57;17.30;1.00
24224;DHT22;12359;49.716;9.212;2023-07-20T05:22:23;17.30;1.00
24224;DHT22;12359;49.716;9.212;2023-07-20T05:24:50;17.30;1.00
24224;DHT22;12359;49.716;9.212;2023-07-20T05:27:16;17.20;1.00
24224;DHT22;12359;49.716;9.212;2023-07-20T05:29:45;17.30;1.00
24224;DHT22;12359;49.716;9.212;2023-07-20T05:32:12;17.30;1.00
24224;DHT22;12359;49.716;9.212;2023-07-20T05:34:38;17.30;1.00
24224;DHT22;12359;49.716;9.212;2023-07-20T05:37:04;17.50;1.00
24224;DHT22;12359;49.716;9.212;2023-07-20T05:39:32;17.60;1.00
24224;DHT22;12359;49.716;9.212;2023-07-20T05:41:58;17.80;1.00
24224;DHT22;12359;49.716;9.212;2023-07-20T05:44:24;17.90;1.00
24224;DHT22;12359;49.716;9.212;2023-07-20T05:46:49;18.20;1.00
24224;DHT22;12359;49.716;9.212;2023-07-20T05:49:15;18.40;1.00
24224;DHT22;12359;49.716;9.212;2023-07-20T05:51:41;18.50;99.90
24224;DHT22;12359;49.716;9.212;2023-07-20T05:54:07;18.60;99.90
24224;DHT22;12359;49.716;9.212;2023-07-20T05:56:32;18.70;99.90
24224;DHT22;12359;49.716;9.212;2023-07-20T05:58:58;18.60;99.90
24224;DHT22;12359;49.716;9.212;2023-07-20T06:01:24;18.50;99.90
24224;DHT22;12359;49.716;9.212;2023-07-20T06:03:52;18.40;99.90
24224;DHT22;12359;49.716;9.212;2023-07-20T06:06:19;18.40;99.90
24224;DHT22;12359;49.716;9.212;2023-07-20T06:08:44;18.40;99.90
24224;DHT22;12359;49.716;9.212;2023-07-20T06:11:11;18.40;99.90
24224;DHT22;12359;49.716;9.212;2023-07-20T06:13:36;18.40;99.90
24224;DHT22;12359;49.716;9.212;2023-07-20T06:16:03;18.40;99.90
24224;DHT22;12359;49.716;9.212;2023-07-20T06:18:29;18.50;93.60
24224;DHT22;12359;49.716;9.212;2023-07-20T06:20:56;18.70;99.90
24224;DHT22;12359;49.716;9.212;2023-07-20T06:23:21;18.80;1.00
24224;DHT22;12359;49.716;9.212;2023-07-20T06:25:47;19.00;1.00
24224;DHT22;12359;49.716;9.212;2023-07-20T06:28:13;19.40;12.20
24224;DHT22;12359;49.716;9.212;2023-07-20T06:30:39;20.00;1.00
24224;DHT22;12359;49.716;9.212;2023-07-20T06:33:05;20.50;99.90
24224;DHT22;12359;49.716;9.212;2023-07-20T06:35:32;20.90;1.00
24224;DHT22;12359;49.716;9.212;2023-07-20T06:37:57;21.50;99.90
24224;DHT22;12359;49.716;9.212;2023-07-20T06:40:25;22.00;99.90
24224;DHT22;12359;49.716;9.212;2023-07-20T06:42:51;22.40;48.50
24224;DHT22;12359;49.716;9.212;2023-07-20T06:45:17;22.10;1.00
24224;DHT22;12359;49.716;9.212;2023-07-20T06:47:43;22.00;99.90
24224;DHT22;12359;49.716;9.212;2023-07-20T06:50:09;21.80;1.00
24224;DHT22;12359;49.716;9.212;2023-07-20T06:52:36;21.60;1.00
24224;DHT22;12359;49.716;9.212;2023-07-20T06:55:02;21.40;1.00
24224;DHT22;12359;49.716;9.212;2023-07-20T06:57:28;22.00;1.00
24224;DHT22;12359;49.716;9.212;2023-07-20T06:59:53;23.10;99.90
24224;DHT22;12359;49.716;9.212;2023-07-20T07:02:19;24.00;1.00
24224;DHT22;12359;49.716;9.212;2023-07-20T07:04:45;25.20;99.90
24224;DHT22;12359;49.716;9.212;2023-07-20T07:07:14;26.30;92.10
24224;DHT22;12359;49.716;9.212;2023-07-20T07:09:40;27.40;27.80
24224;DHT22;12359;49.716;9.212;2023-07-20T07:12:06;28.30;1.00
24224;DHT22;12359;49.716;9.212;2023-07-20T07:14:32;28.90;1.00
24224;DHT22;12359;49.716;9.212;2023-07-20T07:16:58;29.50;1.00
24224;DHT22;12359;49.716;9.212;2023-07-20T07:19:24;29.70;1.00
24224;DHT22;12359;49.716;9.212;2023-07-20T07:21:50;30.20;1.00
24224;DHT22;12359;49.716;9.212;2023-07-20T07:24:16;30.00;1.00
24224;DHT22;12359;49.716;9.212;2023-07-20T07:26:42;29.30;1.00
24224;DHT22;12359;49.716;9.212;2023-07-20T07:29:08;28.90;1.00
24224;DHT22;12359;49.716;9.212;2023-07-20T07:31:34;28.20;1.00
24224;DHT22;12359;49.716;9.212;2023-07-20T07:34:01;27.30;99.90
24224;DHT22;12359;49.716;9.212;2023-07-20T07:36:28;26.10;99.90
24224;DHT22;12359;49.716;9.212;2023-07-20T07:38:53;25.40;1.00
24224;DHT22;12359;49.716;9.212;2023-07-20T07:41:19;25.30;1.00
24224;DHT22;12359;49.716;9.212;2023-07-20T07:43:46;25.60;1.00
24224;DHT22;12359;49.716;9.212;2023-07-20T07:46:11;25.60;1.00
24224;DHT22;12359;49.716;9.212;2023-07-20T07:48:37;25.50;1.00
24224;DHT22;12359;49.716;9.212;2023-07-20T07:51:03;25.60;1.00
24224;DHT22;12359;49.716;9.212;2023-07-20T07:53:29;25.40;1.00
24224;DHT22;12359;49.716;9.212;2023-07-20T07:55:55;25.40;1.00
24224;DHT22;12359;49.716;9.212;2023-07-20T07:58:21;25.40;1.00
24224;DHT22;12359;49.716;9.212;2023-07-20T08:00:46;24.80;1.00
24224;DHT22;12359;49.716;9.212;2023-07-20T08:03:13;24.30;1.00
24224;DHT22;12359;49.716;9.212;2023-07-20T08:05:39;23.90;1.00
24224;DHT22;12359;49.716;9.212;2023-07-20T08:08:05;23.70;1.00
24224;DHT22;12359;49.716;9.212;2023-07-20T08:10:31;23.70;1.00
24224;DHT22;12359;49.716;9.212;2023-07-20T08:12:56;24.70;1.00
24224;DHT22;12359;49.716;9.212;2023-07-20T08:15:23;25.90;1.00
24224;DHT22;12359;49.716;9.212;2023-07-20T08:17:48;26.80;1.00
24224;DHT22;12359;49.716;9.212;2023-07-20T08:20:17;28.00;1.00
24224;DHT22;12359;49.716;9.212;2023-07-20T08:22:43;28.10;1.00
24224;DHT22;12359;49.716;9.212;2023-07-20T08:25:09;27.20;1.00
24224;DHT22;12359;49.716;9.212;2023-07-20T08:27:37;26.20;1.00
24224;DHT22;12359;49.716;9.212;2023-07-20T08:30:03;25.40;1.00
24224;DHT22;12359;49.716;9.212;2023-07-20T08:32:30;24.80;1.00
24224;DHT22;12359;49.716;9.212;2023-07-20T08:34:55;25.10;1.00
24224;DHT22;12359;49.716;9.212;2023-07-20T08:37:22;25.80;1.00
24224;DHT22;12359;49.716;9.212;2023-07-20T08:39:48;26.70;1.00
24224;DHT22;12359;49.716;9.212;2023-07-20T08:42:14;27.30;1.00
24224;DHT22;12359;49.716;9.212;2023-07-20T08:44:41;28.00;1.00
24224;DHT22;12359;49.716;9.212;2023-07-20T08:47:09;28.70;1.00
24224;DHT22;12359;49.716;9.212;2023-07-20T08:49:36;29.20;99.90
24224;DHT22;12359;49.716;9.212;2023-07-20T08:52:04;29.40;99.90
24224;DHT22;12359;49.716;9.212;2023-07-20T08:54:30;29.50;99.90
24224;DHT22;12359;49.716;9.212;2023-07-20T08:57:03;30.00;99.90
24224;DHT22;12359;49.716;9.212;2023-07-20T08:59:30;29.70;99.90
24224;DHT22;12359;49.716;9.212;2023-07-20T09:01:59;29.20;99.90
24224;DHT22;12359;49.716;9.212;2023-07-20T09:04:26;28.20;99.90
24224;DHT22;12359;49.716;9.212;2023-07-20T09:06:51;27.40;99.90
24224;DHT22;12359;49.716;9.212;2023-07-20T09:09:17;27.50;99.90
24224;DHT22;12359;49.716;9.212;2023-07-20T09:11:47;28.00;99.90
24224;DHT22;12359;49.716;9.212;2023-07-20T09:14:13;28.50;99.90
24224;DHT22;12359;49.716;9.212;2023-07-20T09:16:55;29.10;99.90
24224;DHT22;12359;49.716;9.212;2023-07-20T09:19:21;29.50;99.90
24224;DHT22;12359;49.716;9.212;2023-07-20T09:21:49;29.90;99.90
24224;DHT22;12359;49.716;9.212;2023-07-20T09:24:16;30.10;99.90
24224;DHT22;12359;49.716;9.212;2023-07-20T09:26:44;30.60;99.90
24224;DHT22;12359;49.716;9.212;2023-07-20T09:29:10;30.90;99.90
24224;DHT22;12359;49.716;9.212;2023-07-20T09:31:36;30.80;99.90
24224;DHT22;12359;49.716;9.212;2023-07-20T09:34:02;30.80;99.90
24224;DHT22;12359;49.716;9.212;2023-07-20T09:36:29;30.00;99.90
24224;DHT22;12359;49.716;9.212;2023-07-20T09:38:55;29.50;99.90
24224;DHT22;12359;49.716;9.212;2023-07-20T09:41:21;29.80;99.90
24224;DHT22;12359;49.716;9.212;2023-07-20T09:43:47;30.40;99.90
24224;DHT22;12359;49.716;9.212;2023-07-20T09:46:13;30.80;99.90
24224;DHT22;12359;49.716;9.212;2023-07-20T09:48:39;31.30;99.90
24224;DHT22;12359;49.716;9.212;2023-07-20T09:51:07;31.60;99.90
24224;DHT22;12359;49.716;9.212;2023-07-20T09:53:33;31.50;99.90
24224;DHT22;12359;49.716;9.212;2023-07-20T09:56:00;32.00;99.90
24224;DHT22;12359;49.716;9.212;2023-07-20T09:58:26;32.30;99.90
24224;DHT22;12359;49.716;9.212;2023-07-20T10:00:56;32.30;99.90
24224;DHT22;12359;49.716;9.212;2023-07-20T10:03:29;32.30;99.90
24224;DHT22;12359;49.716;9.212;2023-07-20T10:06:19;32.10;99.90
24224;DHT22;12359;49.716;9.212;2023-07-20T10:08:47;31.90;99.90
24224;DHT22;12359;49.716;9.212;2023-07-20T10:11:15;31.80;99.90
24224;DHT22;12359;49.716;9.212;2023-07-20T10:13:43;31.80;99.90
24224;DHT22;12359;49.716;9.212;2023-07-20T10:16:22;32.10;99.90
24224;DHT22;12359;49.716;9.212;2023-07-20T10:19:07;32.40;99.90
24224;DHT22;12359;49.716;9.212;2023-07-20T10:21:40;32.20;99.90
24224;DHT22;12359;49.716;9.212;2023-07-20T10:24:08;32.50;99.90
24224;DHT22;12359;49.716;9.212;2023-07-20T10:26:34;32.30;99.90
24224;DHT22;12359;49.716;9.212;2023-07-20T10:29:01;32.00;99.90
24224;DHT22;12359;49.716;9.212;2023-07-20T10:31:28;31.30;99.90
24224;DHT22;12359;49.716;9.212;2023-07-20T10:33:56;30.40;99.90
24224;DHT22;12359;49.716;9.212;2023-07-20T10:36:26;29.60;99.90
24224;DHT22;12359;49.716;9.212;2023-07-20T10:38:54;29.00;99.90
24224;DHT22;12359;49.716;9.212;2023-07-20T10:41:22;29.20;99.90
24224;DHT22;12359;49.716;9.212;2023-07-20T10:43:58;29.60;99.90
24224;DHT22;12359;49.716;9.212;2023-07-20T10:46:36;30.30;99.90
24224;DHT22;12359;49.716;9.212;2023-07-20T10:49:08;30.70;99.90
24224;DHT22;12359;49.716;9.212;2023-07-20T10:51:47;30.80;99.90
24224;DHT22;12359;49.716;9.212;2023-07-20T10:56:47;29.80;99.90
24224;DHT22;12359;49.716;9.212;2023-07-20T11:01:57;29.90;99.90
24224;DHT22;12359;49.716;9.212;2023-07-20T11:04:39;29.80;99.90
24224;DHT22;12359;49.716;9.212;2023-07-20T11:07:05;30.00;99.90
24224;DHT22;12359;49.716;9.212;2023-07-20T11:09:35;30.00;99.90
24224;DHT22;12359;49.716;9.212;2023-07-20T11:12:12;30.00;99.90
24224;DHT22;12359;49.716;9.212;2023-07-20T11:14:56;29.90;99.90
24224;DHT22;12359;49.716;9.212;2023-07-20T11:17:29;30.00;99.90
24224;DHT22;12359;49.716;9.212;2023-07-20T11:19:56;30.00;99.90
24224;DHT22;12359;49.716;9.212;2023-07-20T11:22:22;29.70;99.90
24224;DHT22;12359;49.716;9.212;2023-07-20T11:24:48;29.30;99.90
24224;DHT22;12359;49.716;9.212;2023-07-20T11:27:15;29.70;99.90
24224;DHT22;12359;49.716;9.212;2023-07-20T11:29:41;30.30;99.90
24224;DHT22;12359;49.716;9.212;2023-07-20T11:32:07;30.90;99.90
24224;DHT22;12359;49.716;9.212;2023-07-20T11:34:34;31.50;99.90
24224;DHT22;12359;49.716;9.212;2023-07-20T11:37:00;31.70;99.90
24224;DHT22;12359;49.716;9.212;2023-07-20T11:39:26;31.70;99.90
24224;DHT22;12359;49.716;9.212;2023-07-20T11:41:54;31.70;99.90
24224;DHT22;12359;49.716;9.212;2023-07-20T11:44:21;31.50;99.90
24224;DHT22;12359;49.716;9.212;2023-07-20T11:47:08;31.10;99.90
24224;DHT22;12359;49.716;9.212;2023-07-20T11:49:42;31.00;99.90
24224;DHT22;12359;49.716;9.212;2023-07-20T11:52:10;30.90;99.90
24224;DHT22;12359;49.716;9.212;2023-07-20T11:54:37;30.80;99.90
24224;DHT22;12359;49.716;9.212;2023-07-20T11:57:04;30.20;99.90
24224;DHT22;12359;49.716;9.212;2023-07-20T11:59:33;29.80;99.90
24224;DHT22;12359;49.716;9.212;2023-07-20T12:02:03;29.60;99.90
24224;DHT22;12359;49.716;9.212;2023-07-20T12:04:30;29.40;99.90
24224;DHT22;12359;49.716;9.212;2023-07-20T12:06:56;29.20;99.90
24224;DHT22;12359;49.716;9.212;2023-07-20T12:09:22;29.00;99.90
24224;DHT22;12359;49.716;9.212;2023-07-20T12:11:49;29.00;99.90
24224;DHT22;12359;49.716;9.212;2023-07-20T12:14:15;28.90;99.90
24224;DHT22;12359;49.716;9.212;2023-07-20T12:16:41;28.70;99.90
24224;DHT22;12359;49.716;9.212;2023-07-20T12:19:09;28.60;99.90
24224;DHT22;12359;49.716;9.212;2023-07-20T12:21:37;28.50;99.90
24224;DHT22;12359;49.716;9.212;2023-07-20T12:24:03;28.70;99.90
24224;DHT22;12359;49.716;9.212;2023-07-20T12:26:31;29.00;99.90
24224;DHT22;12359;49.716;9.212;2023-07-20T12:28:57;29.00;99.90
24224;DHT22;12359;49.716;9.212;2023-07-20T12:31:25;29.10;99.90
24224;DHT22;12359;49.716;9.212;2023-07-20T12:33:52;29.20;99.90
24224;DHT22;12359;49.716;9.212;2023-07-20T12:36:20;29.50;99.90
24224;DHT22;12359;49.716;9.212;2023-07-20T12:38:46;29.40;99.90
24224;DHT22;12359;49.716;9.212;2023-07-20T12:41:13;28.90;99.90
24224;DHT22;12359;49.716;9.212;2023-07-20T12:43:42;28.70;99.90
24224;DHT22;12359;49.716;9.212;2023-07-20T12:46:10;28.60;99.90
24224;DHT22;12359;49.716;9.212;2023-07-20T12:48:36;28.80;99.90
24224;DHT22;12359;49.716;9.212;2023-07-20T12:51:10;29.20;99.90
24224;DHT22;12359;49.716;9.212;2023-07-20T12:53:37;29.30;99.90
24224;DHT22;12359;49.716;9.212;2023-07-20T12:56:03;29.30;99.90
24224;DHT22;12359;49.716;9.212;2023-07-20T12:58:28;29.30;99.90
24224;DHT22;12359;49.716;9.212;2023-07-20T13:00:54;29.20;99.90
24224;DHT22;12359;49.716;9.212;2023-07-20T13:03:20;29.10;99.90
24224;DHT22;12359;49.716;9.212;2023-07-20T13:05:47;28.90;99.90
24224;DHT22;12359;49.716;9.212;2023-07-20T13:08:13;28.70;99.90
24224;DHT22;12359;49.716;9.212;2023-07-20T13:10:39;28.80;99.90
24224;DHT22;12359;49.716;9.212;2023-07-20T13:13:05;28.90;99.90
24224;DHT22;12359;49.716;9.212;2023-07-20T13:15:32;29.00;99.90
24224;DHT22;12359;49.716;9.212;2023-07-20T13:17:59;29.20;99.90
24224;DHT22;12359;49.716;9.212;2023-07-20T13:20:25;29.50;99.90
24224;DHT22;12359;49.716;9.212;2023-07-20T13:22:51;29.40;99.90
24224;DHT22;12359;49.716;9.212;2023-07-20T13:25:17;29.10;99.90
24224;DHT22;12359;49.716;9.212;2023-07-20T13:27:44;28.70;99.90
24224;DHT22;12359;49.716;9.212;2023-07-20T13:30:10;28.40;99.90
24224;DHT22;12359;49.716;9.212;2023-07-20T13:32:44;28.30;99.90
24224;DHT22;12359;49.716;9.212;2023-07-20T13:35:14;28.20;99.90
24224;DHT22;12359;49.716;9.212;2023-07-20T13:37:40;27.90;99.90
24224;DHT22;12359;49.716;9.212;2023-07-20T13:40:06;27.60;99.90
24224;DHT22;12359;49.716;9.212;2023-07-20T13:42:33;27.40;99.90
24224;DHT22;12359;49.716;9.212;2023-07-20T13:45:01;27.30;99.90
24224;DHT22;12359;49.716;9.212;2023-07-20T13:47:26;27.20;99.90
24224;DHT22;12359;49.716;9.212;2023-07-20T13:49:53;27.20;99.90
24224;DHT22;12359;49.716;9.212;2023-07-20T13:52:19;27.30;99.90
24224;DHT22;12359;49.716;9.212;2023-07-20T13:54:45;27.40;99.90
24224;DHT22;12359;49.716;9.212;2023-07-20T13:57:10;27.40;99.90
24224;DHT22;12359;49.716;9.212;2023-07-20T13:59:36;27.70;99.90
24224;DHT22;12359;49.716;9.212;2023-07-20T14:02:03;27.90;99.90
24224;DHT22;12359;49.716;9.212;2023-07-20T14:04:29;27.90;99.90
24224;DHT22;12359;49.716;9.212;2023-07-20T14:06:54;27.90;99.90
24224;DHT22;12359;49.716;9.212;2023-07-20T14:09:20;27.70;99.90
24224;DHT22;12359;49.716;9.212;2023-07-20T14:11:46;27.70;99.90
24224;DHT22;12359;49.716;9.212;2023-07-20T14:14:11;27.60;99.90
24224;DHT22;12359;49.716;9.212;2023-07-20T14:16:40;27.50;99.90
24224;DHT22;12359;49.716;9.212;2023-07-20T14:19:06;27.50;99.90
24224;DHT22;12359;49.716;9.212;2023-07-20T14:21:32;27.70;99.90
24224;DHT22;12359;49.716;9.212;2023-07-20T14:23:58;27.80;99.90
24224;DHT22;12359;49.716;9.212;2023-07-20T14:26:24;28.00;99.90
24224;DHT22;12359;49.716;9.212;2023-07-20T14:28:50;28.10;99.90
24224;DHT22;12359;49.716;9.212;2023-07-20T14:31:16;28.10;99.90
24224;DHT22;12359;49.716;9.212;2023-07-20T14:33:42;28.10;99.90
24224;DHT22;12359;49.716;9.212;2023-07-20T14:36:08;27.90;99.90
24224;DHT22;12359;49.716;9.212;2023-07-20T14:38:34;27.80;99.90
24224;DHT22;12359;49.716;9.212;2023-07-20T14:41:00;27.90;99.90
24224;DHT22;12359;49.716;9.212;2023-07-20T14:43:26;27.90;99.90
24224;DHT22;12359;49.716;9.212;2023-07-20T14:45:52;27.80;99.90
24224;DHT22;12359;49.716;9.212;2023-07-20T14:48:17;27.60;99.90
24224;DHT22;12359;49.716;9.212;2023-07-20T14:50:43;27.50;99.90
24224;DHT22;12359;49.716;9.212;2023-07-20T14:53:15;27.50;99.90
24224;DHT22;12359;49.716;9.212;2023-07-20T14:55:42;27.70;99.90
24224;DHT22;12359;49.716;9.212;2023-07-20T14:58:08;27.60;99.90
24224;DHT22;12359;49.716;9.212;2023-07-20T15:00:33;27.70;99.90
24224;DHT22;12359;49.716;9.212;2023-07-20T15:02:59;27.80;99.90
24224;DHT22;12359;49.716;9.212;2023-07-20T15:05:25;27.90;99.90
24224;DHT22;12359;49.716;9.212;2023-07-20T15:07:54;27.90;99.90
24224;DHT22;12359;49.716;9.212;2023-07-20T15:10:20;27.80;99.90
24224;DHT22;12359;49.716;9.212;2023-07-20T15:12:46;27.90;99.90
24224;DHT22;12359;49.716;9.212;2023-07-20T15:15:13;27.90;99.90
24224;DHT22;12359;49.716;9.212;2023-07-20T15:17:42;28.00;99.90
24224;DHT22;12359;49.716;9.212;2023-07-20T15:20:11;28.10;99.90
24224;DHT22;12359;49.716;9.212;2023-07-20T15:22:37;28.10;99.90
24224;DHT22;12359;49.716;9.212;2023-07-20T15:25:07;28.10;99.90
24224;DHT22;12359;49.716;9.212;2023-07-20T15:27:33;28.20;99.90
24224;DHT22;12359;49.716;9.212;2023-07-20T15:29:59;28.20;99.90
24224;DHT22;12359;49.716;9.212;2023-07-20T15:32:25;28.10;99.90
24224;DHT22;12359;49.716;9.212;2023-07-20T15:34:51;28.00;99.90
24224;DHT22;12359;49.716;9.212;2023-07-20T15:37:17;27.90;99.90
24224;DHT22;12359;49.716;9.212;2023-07-20T15:39:42;27.80;99.90
24224;DHT22;12359;49.716;9.212;2023-07-20T15:42:08;27.80;99.90
24224;DHT22;12359;49.716;9.212;2023-07-20T15:44:34;27.80;99.90
24224;DHT22;12359;49.716;9.212;2023-07-20T15:47:00;27.50;99.90
24224;DHT22;12359;49.716;9.212;2023-07-20T15:49:27;27.40;99.90
24224;DHT22;12359;49.716;9.212;2023-07-20T15:51:53;27.40;99.90